Menu Close Menu
Station Historical Data
Daily Summary for November 10, 2017 Units:  English    Metric   Both
« Previous Day
Next Day »
Daily Weekly Monthly Yearly Custom
  High: Low: Average:
Temperature: 61.6 °F 40.6 °F 48.7 °F
Dew Point: 43.8 °F 37.3 °F 40.6 °F
Humidity: 94% 44% 76%
Wind Speed: 4.1mph 0.0mph 0.4mph
Wind Gust: 5.0mph - -
Wind- - SSW
Pressure: 30.27 in 30.13 in -
Precipitation: 0.00 in    
Historical Graphs
 
 
Tabular Data for November 10, 2017
Time Temperature Dew Point Pressure Wind Wind Speed Wind Gust Humidity Rainfall Rate (Hourly) solar Conditions
00:00 45.3 °F 43.7 °F 30.15 in Calm     94% 0.00 in WeatherDisplay:10.37 W/m2 RA
00:05 45.3 °F 43.7 °F 30.14 in Calm     94% 0.00 in WeatherDisplay:10.37 W/m2 CLR
00:10 45.3 °F 43.7 °F 30.14 in Calm     94% 0.00 in WeatherDisplay:10.37 W/m2 CLR
00:15 45.3 °F 43.7 °F 30.14 in Calm     94% 0.00 in WeatherDisplay:10.37 W/m2 CLR
00:20 45.3 °F 43.7 °F 30.14 in Calm     94% 0.00 in WeatherDisplay:10.37 W/m2 CLR
00:25 45.4 °F 43.8 °F 30.14 in Calm     94% 0.00 in WeatherDisplay:10.37 W/m2 CLR
00:30 45.4 °F 43.8 °F 30.14 in Calm     94% 0.00 in WeatherDisplay:10.37 W/m2 CLR
00:35 45.3 °F 43.7 °F 30.14 in Calm     94% 0.00 in WeatherDisplay:10.37 W/m2 CLR
00:40 45.2 °F 43.6 °F 30.14 in Calm     94% 0.00 in WeatherDisplay:10.37 W/m2 CLR
00:45 45.2 °F 43.6 °F 30.14 in Calm     94% 0.00 in WeatherDisplay:10.37 W/m2 CLR
00:50 45.1 °F 43.5 °F 30.14 in Calm     94% 0.00 in WeatherDisplay:10.37 W/m2 CLR
00:55 45.1 °F 43.5 °F 30.14 in Calm     94% 0.00 in WeatherDisplay:10.37 W/m2 CLR
01:00 45.0 °F 43.4 °F 30.14 in Calm     94% 0.00 in WeatherDisplay:10.37 W/m2 CLR
01:05 44.9 °F 43.3 °F 30.14 in Calm     94% 0.00 in WeatherDisplay:10.37 W/m2 CLR
01:10 44.8 °F 43.2 °F 30.14 in Calm     94% 0.00 in WeatherDisplay:10.37 W/m2 CLR
01:15 44.7 °F 43.1 °F 30.14 in Calm     94% 0.00 in WeatherDisplay:10.37 W/m2 CLR
01:20 44.5 °F 42.9 °F 30.14 in Calm     94% 0.00 in WeatherDisplay:10.37 W/m2 CLR
01:25 44.4 °F 42.8 °F 30.14 in Calm     94% 0.00 in WeatherDisplay:10.37 W/m2 CLR
01:30 44.3 °F 42.7 °F 30.14 in Calm     94% 0.00 in WeatherDisplay:10.37 W/m2 CLR
01:35 44.2 °F 42.6 °F 30.14 in Calm     94% 0.00 in WeatherDisplay:10.37 W/m2 CLR
01:40 44.1 °F 42.5 °F 30.14 in Calm     94% 0.00 in WeatherDisplay:10.37 W/m2 CLR
01:45 44.0 °F 42.4 °F 30.14 in Calm     94% 0.00 in WeatherDisplay:10.37 W/m2 CLR
01:50 43.9 °F 42.3 °F 30.14 in Calm     94% 0.00 in WeatherDisplay:10.37 W/m2 CLR
01:56 43.8 °F 42.2 °F 30.14 in Calm     94% 0.00 in WeatherDisplay:10.37 W/m2 CLR
02:01 43.7 °F 42.1 °F 30.14 in Calm     94% 0.00 in WeatherDisplay:10.37 W/m2 CLR
02:06 43.7 °F 42.1 °F 30.14 in Calm     94% 0.00 in WeatherDisplay:10.37 W/m2 CLR
02:11 43.7 °F 42.1 °F 30.14 in Calm     94% 0.00 in WeatherDisplay:10.37 W/m2 CLR
02:16 43.7 °F 42.1 °F 30.14 in Calm     94% 0.00 in WeatherDisplay:10.37 W/m2 CLR
02:21 43.6 °F 42.0 °F 30.14 in Calm     94% 0.00 in WeatherDisplay:10.37 W/m2 CLR
02:26 43.6 °F 42.0 °F 30.14 in Calm     94% 0.00 in WeatherDisplay:10.37 W/m2 CLR
02:31 43.5 °F 41.9 °F 30.14 in Calm     94% 0.00 in WeatherDisplay:10.37 W/m2 CLR
02:36 43.5 °F 41.9 °F 30.14 in Calm     94% 0.00 in WeatherDisplay:10.37 W/m2 CLR
02:41 43.3 °F 41.7 °F 30.14 in Calm     94% 0.00 in WeatherDisplay:10.37 W/m2 CLR
02:46 43.1 °F 41.5 °F 30.14 in Calm     94% 0.00 in WeatherDisplay:10.37 W/m2 CLR
02:51 43.1 °F 41.5 °F 30.14 in Calm     94% 0.00 in WeatherDisplay:10.37 W/m2 CLR
02:56 43.0 °F 41.4 °F 30.14 in Calm     94% 0.00 in WeatherDisplay:10.37 W/m2 CLR
03:01 42.9 °F 41.3 °F 30.13 in Calm     94% 0.00 in WeatherDisplay:10.37 W/m2 CLR
03:06 42.9 °F 41.3 °F 30.13 in Calm     94% 0.00 in WeatherDisplay:10.37 W/m2 CLR
03:11 42.9 °F 41.3 °F 30.13 in Calm     94% 0.00 in WeatherDisplay:10.37 W/m2 CLR
03:16 42.9 °F 41.3 °F 30.13 in Calm     94% 0.00 in WeatherDisplay:10.37 W/m2 CLR
03:21 42.8 °F 41.2 °F 30.13 in Calm     94% 0.00 in WeatherDisplay:10.37 W/m2 CLR
03:26 42.8 °F 41.2 °F 30.13 in Calm     94% 0.00 in WeatherDisplay:10.37 W/m2 CLR
03:31 42.9 °F 41.3 °F 30.13 in Calm     94% 0.00 in WeatherDisplay:10.37 W/m2 CLR
03:36 43.0 °F 41.4 °F 30.13 in Calm     94% 0.00 in WeatherDisplay:10.37 W/m2 CLR
03:41 43.1 °F 41.5 °F 30.13 in Calm     94% 0.00 in WeatherDisplay:10.37 W/m2 CLR
03:46 43.1 °F 41.5 °F 30.13 in Calm     94% 0.00 in WeatherDisplay:10.37 W/m2 CLR
03:52 43.0 °F 41.4 °F 30.13 in Calm     94% 0.00 in WeatherDisplay:10.37 W/m2 CLR
03:57 43.0 °F 41.4 °F 30.13 in Calm     94% 0.00 in WeatherDisplay:10.37 W/m2 CLR
04:02 43.0 °F 41.4 °F 30.13 in Calm     94% 0.00 in WeatherDisplay:10.37 W/m2 CLR
04:07 43.0 °F 41.4 °F 30.13 in Calm     94% 0.00 in WeatherDisplay:10.37 W/m2 CLR
04:08 43.0 °F 41.4 °F 30.13 in Calm     94% 0.00 in WeatherDisplay:10.37 W/m2 CLR
04:13 43.0 °F 41.4 °F 30.13 in Calm     94% 0.00 in WeatherDisplay:10.37 W/m2 CLR
04:18 42.9 °F 41.3 °F 30.13 in WNW 1.2 mph 1.2 mph 94% 0.00 in WeatherDisplay:10.37 W/m2 CLR
04:24 42.9 °F 41.3 °F 30.13 in Calm     94% 0.00 in WeatherDisplay:10.37 W/m2 CLR
04:25 42.9 °F 41.3 °F 30.13 in Calm     94% 0.00 in WeatherDisplay:10.37 W/m2 CLR
04:30 42.8 °F 41.2 °F 30.13 in Calm     94% 0.00 in WeatherDisplay:10.37 W/m2 CLR
04:35 42.8 °F 41.2 °F 30.13 in Calm     94% 0.00 in WeatherDisplay:10.37 W/m2 CLR
04:40 42.7 °F 41.1 °F 30.13 in Calm     94% 0.00 in WeatherDisplay:10.37 W/m2 CLR
04:45 42.7 °F 41.1 °F 30.13 in Calm     94% 0.00 in WeatherDisplay:10.37 W/m2 CLR
04:50 42.5 °F 40.9 °F 30.13 in Calm     94% 0.00 in WeatherDisplay:10.37 W/m2 CLR
04:55 42.4 °F 40.8 °F 30.13 in Calm     94% 0.00 in WeatherDisplay:10.37 W/m2 CLR
05:00 42.4 °F 40.8 °F 30.13 in Calm     94% 0.00 in WeatherDisplay:10.37 W/m2 CLR
05:05 42.3 °F 40.7 °F 30.16 in Calm     94% 0.00 in WeatherDisplay:10.37 W/m2 CLR
05:10 42.3 °F 40.7 °F 30.16 in Calm     94% 0.00 in WeatherDisplay:10.37 W/m2 CLR
05:15 42.2 °F 40.6 °F 30.16 in Calm     94% 0.00 in WeatherDisplay:10.37 W/m2 CLR
05:20 42.1 °F 40.5 °F 30.16 in Calm     94% 0.00 in WeatherDisplay:10.37 W/m2 CLR
05:25 42.0 °F 40.4 °F 30.16 in Calm     94% 0.00 in WeatherDisplay:10.37 W/m2 CLR
05:27 42.0 °F 40.4 °F 30.16 in Calm     94% 0.00 in WeatherDisplay:10.37 W/m2 CLR
05:32 41.9 °F 40.3 °F 30.16 in Calm     94% 0.00 in WeatherDisplay:10.37 W/m2 CLR
05:37 41.7 °F 40.1 °F 30.16 in Calm     94% 0.00 in WeatherDisplay:10.37 W/m2 CLR
05:42 41.6 °F 40.0 °F 30.16 in Calm     94% 0.00 in WeatherDisplay:10.37 W/m2 CLR
05:47 41.6 °F 40.0 °F 30.16 in Calm     94% 0.00 in WeatherDisplay:10.37 W/m2 CLR
05:52 41.5 °F 39.9 °F 30.16 in Calm     94% 0.00 in WeatherDisplay:10.37 W/m2 CLR
05:57 41.5 °F 39.9 °F 30.16 in Calm     94% 0.00 in WeatherDisplay:10.37 W/m2 CLR
06:02 41.4 °F 39.8 °F 30.17 in Calm     94% 0.00 in WeatherDisplay:10.37 W/m2 CLR
06:07 41.3 °F 39.7 °F 30.17 in Calm     94% 0.00 in WeatherDisplay:10.37 W/m2 CLR
06:12 41.2 °F 39.6 °F 30.17 in Calm     94% 0.00 in WeatherDisplay:10.37 W/m2 CLR
06:17 41.2 °F 39.6 °F 30.17 in Calm     94% 0.00 in WeatherDisplay:10.37 W/m2 CLR
06:22 41.2 °F 39.6 °F 30.17 in Calm     94% 0.00 in WeatherDisplay:10.37 W/m2 CLR
06:27 41.2 °F 39.6 °F 30.17 in Calm     94% 0.00 in WeatherDisplay:10.37 W/m2 CLR
06:33 41.1 °F 39.5 °F 30.17 in Calm     94% 0.00 in WeatherDisplay:10.37 W/m2 CLR
06:38 41.1 °F 39.5 °F 30.17 in Calm     94% 0.00 in WeatherDisplay:10.37 W/m2 CLR
06:43 41.1 °F 39.5 °F 30.17 in Calm     94% 0.00 in WeatherDisplay:10.37 W/m2 CLR
06:48 41.0 °F 39.4 °F 30.17 in Calm     94% 0.00 in WeatherDisplay:10.37 W/m2 CLR
06:53 40.9 °F 39.3 °F 30.17 in Calm     94% 0.00 in WeatherDisplay:10.37 W/m2 CLR
06:58 40.9 °F 39.3 °F 30.17 in Calm     94% 0.00 in WeatherDisplay:10.37 W/m2 CLR
07:03 40.8 °F 39.2 °F 30.18 in Calm     94% 0.00 in WeatherDisplay:10.37 W/m2 CLR
07:08 40.8 °F 39.2 °F 30.18 in Calm     94% 0.00 in WeatherDisplay:10.37 W/m2 CLR
07:13 40.8 °F 39.2 °F 30.18 in Calm     94% 0.00 in WeatherDisplay:10.37 W/m2 CLR
07:18 40.8 °F 39.2 °F 30.18 in Calm     94% 0.00 in WeatherDisplay:10.37 W/m2 CLR
07:23 40.8 °F 39.2 °F 30.18 in Calm     94% 0.00 in WeatherDisplay:10.37 W/m2 CLR
07:28 40.9 °F 39.3 °F 30.18 in Calm     94% 0.00 in WeatherDisplay:10.37 W/m2 CLR
07:29 40.9 °F 39.3 °F 30.18 in Calm     94% 0.00 in WeatherDisplay:10.37 W/m2 CLR
07:34 41.0 °F 39.4 °F 30.18 in Calm     94% 0.00 in WeatherDisplay:10.37 W/m2 CLR
07:39 41.2 °F 39.6 °F 30.18 in Calm     94% 0.00 in WeatherDisplay:10.37 W/m2 CLR
07:44 41.3 °F 39.7 °F 30.18 in Calm     94% 0.00 in WeatherDisplay:10.37 W/m2 CLR
07:49 41.5 °F 39.9 °F 30.18 in Calm     94% 0.00 in WeatherDisplay:10.37 W/m2 CLR
07:54 41.6 °F 40.0 °F 30.18 in Calm     94% 0.00 in WeatherDisplay:10.37 W/m2 CLR
07:59 41.7 °F 40.1 °F 30.18 in Calm     94% 0.00 in WeatherDisplay:10.37 W/m2 CLR
08:04 41.9 °F 40.3 °F 30.21 in Calm     94% 0.00 in WeatherDisplay:10.37 W/m2 SCT
08:09 42.0 °F 40.4 °F 30.21 in Calm     94% 0.00 in WeatherDisplay:10.37 W/m2 SCT
08:14 42.3 °F 40.7 °F 30.21 in Calm     94% 0.00 in WeatherDisplay:10.37 W/m2 SCT
08:19 42.5 °F 40.9 °F 30.21 in East 2.3 mph   94% 0.00 in WeatherDisplay:10.37 W/m2 SCT
08:24 42.9 °F 41.0 °F 30.21 in Calm     93% 0.00 in WeatherDisplay:10.37 W/m2 SCT
08:29 43.2 °F 41.3 °F 30.21 in Calm     93% 0.00 in WeatherDisplay:10.37 W/m2 SCT
08:34 43.5 °F 41.3 °F 30.21 in Calm     92% 0.00 in WeatherDisplay:10.37 W/m2 SCT
08:39 43.8 °F 41.3 °F 30.21 in Calm     91% 0.00 in WeatherDisplay:10.37 W/m2 SCT
08:44 44.1 °F 41.6 °F 30.21 in Calm     91% 0.00 in WeatherDisplay:10.37 W/m2 SCT
08:50 44.6 °F 41.8 °F 30.21 in Calm     90% 0.00 in WeatherDisplay:10.37 W/m2 SCT
08:55 45.2 °F 42.4 °F 30.21 in Calm     90% 0.00 in WeatherDisplay:10.37 W/m2 SCT
09:00 45.6 °F 42.0 °F 30.21 in Calm   1.0 mph 87% 0.00 in WeatherDisplay:10.37 W/m2 SCT
09:05 46.1 °F 42.1 °F 30.24 in Calm   1.0 mph 86% 0.00 in WeatherDisplay:10.37 W/m2 FEW
09:10 46.5 °F 42.2 °F 30.24 in WNW 1.2 mph 1.2 mph 85% 0.00 in WeatherDisplay:10.37 W/m2 FEW
09:15 46.7 °F 42.1 °F 30.24 in Calm   2.0 mph 84% 0.00 in WeatherDisplay:10.37 W/m2 FEW
09:20 47.0 °F 42.4 °F 30.24 in Calm   1.0 mph 84% 0.00 in WeatherDisplay:10.37 W/m2 FEW
09:25 47.5 °F 42.3 °F 30.24 in Calm   2.0 mph 82% 0.00 in WeatherDisplay:10.37 W/m2 FEW
09:30 47.9 °F 42.7 °F 30.24 in WSW 1.2 mph 1.2 mph 82% 0.00 in WeatherDisplay:10.37 W/m2 FEW
09:35 48.2 °F 42.0 °F 30.24 in ESE 1.0 mph 2.0 mph 79% 0.00 in WeatherDisplay:10.37 W/m2 FEW
09:40 48.6 °F 42.4 °F 30.24 in Calm   2.0 mph 79% 0.00 in WeatherDisplay:10.37 W/m2 FEW
09:45 49.4 °F 43.1 °F 30.24 in Calm   1.0 mph 79% 0.00 in WeatherDisplay:10.37 W/m2 FEW
09:50 50.2 °F 43.6 °F 30.24 in Calm   1.0 mph 78% 0.00 in WeatherDisplay:10.37 W/m2 FEW
09:55 50.8 °F 43.2 °F 30.24 in Calm   1.0 mph 75% 0.00 in WeatherDisplay:10.37 W/m2 FEW
10:00 51.3 °F 42.6 °F 30.24 in Calm   3.0 mph 72% 0.00 in WeatherDisplay:10.37 W/m2 FEW
10:05 52.3 °F 43.5 °F 30.25 in Calm   2.0 mph 72% 0.00 in WeatherDisplay:10.37 W/m2 CLR
10:10 53.2 °F 43.3 °F 30.25 in Calm   1.0 mph 69% 0.00 in WeatherDisplay:10.37 W/m2 CLR
10:15 53.8 °F 43.5 °F 30.25 in Calm   1.0 mph 68% 0.00 in WeatherDisplay:10.37 W/m2 CLR
10:20 54.1 °F 41.4 °F 30.25 in Calm   3.0 mph 62% 0.00 in WeatherDisplay:10.37 W/m2 CLR
10:25 54.0 °F 40.8 °F 30.25 in Calm   5.0 mph 61% 0.00 in WeatherDisplay:10.37 W/m2 CLR
10:30 54.6 °F 41.4 °F 30.25 in Calm   3.0 mph 61% 0.00 in WeatherDisplay:10.37 W/m2 CLR
10:35 55.4 °F 41.7 °F 30.25 in Calm   3.0 mph 60% 0.00 in WeatherDisplay:10.37 W/m2 CLR
10:40 55.9 °F 40.9 °F 30.25 in Calm   1.0 mph 57% 0.00 in WeatherDisplay:10.37 W/m2 CLR
10:45 55.8 °F 41.6 °F 30.25 in SE 1.0 mph 2.0 mph 59% 0.00 in WeatherDisplay:10.37 W/m2 CLR
10:50 55.6 °F 40.1 °F 30.25 in SE 2.3 mph 2.3 mph 56% 0.00 in WeatherDisplay:10.37 W/m2 CLR
10:55 55.5 °F 40.0 °F 30.25 in Calm   3.0 mph 56% 0.00 in WeatherDisplay:10.37 W/m2 CLR
11:00 55.6 °F 41.0 °F 30.25 in Calm   2.0 mph 58% 0.00 in WeatherDisplay:10.37 W/m2 CLR
11:05 55.9 °F 40.4 °F 30.25 in Calm   2.0 mph 56% 0.00 in WeatherDisplay:10.37 W/m2 CLR
11:10 55.9 °F 40.4 °F 30.25 in South 1.0 mph 3.0 mph 56% 0.00 in WeatherDisplay:10.37 W/m2 CLR
11:15 55.9 °F 39.5 °F 30.25 in Calm   2.0 mph 54% 0.00 in WeatherDisplay:10.37 W/m2 CLR
11:20 56.1 °F 41.1 °F 30.25 in ESE 1.0 mph 3.0 mph 57% 0.00 in WeatherDisplay:10.37 W/m2 CLR
11:25 56.1 °F 41.0 °F 30.25 in Calm   3.0 mph 57% 0.00 in WeatherDisplay:10.37 W/m2 CLR
11:30 56.2 °F 40.2 °F 30.25 in South 3.5 mph 3.5 mph 55% 0.00 in WeatherDisplay:10.37 W/m2 CLR
11:35 56.3 °F 39.9 °F 30.25 in South 2.0 mph 2.0 mph 54% 0.00 in WeatherDisplay:10.37 W/m2 CLR
11:40 56.5 °F 41.4 °F 30.25 in Calm   1.0 mph 57% 0.00 in WeatherDisplay:10.37 W/m2 CLR
11:41 56.6 °F 41.5 °F 30.25 in ESE 1.2 mph   57% 0.00 in WeatherDisplay:10.37 W/m2 CLR
11:46 56.8 °F 41.3 °F 30.25 in SSE 2.0 mph 2.0 mph 56% 0.00 in WeatherDisplay:10.37 W/m2 CLR
11:51 57.0 °F 43.2 °F 30.25 in Calm     60% 0.00 in WeatherDisplay:10.37 W/m2 CLR
11:56 57.2 °F 38.7 °F 30.25 in East 3.5 mph 3.5 mph 50% 0.00 in WeatherDisplay:10.37 W/m2 CLR
12:01 57.0 °F 39.5 °F 30.24 in West 1.0 mph 1.0 mph 52% 0.00 in WeatherDisplay:10.37 W/m2 FEW
12:06 57.4 °F 39.9 °F 30.24 in East 2.0 mph 2.0 mph 52% 0.00 in WeatherDisplay:10.37 W/m2 FEW
12:11 57.5 °F 41.9 °F 30.24 in West 1.2 mph 1.2 mph 56% 0.00 in WeatherDisplay:10.37 W/m2 FEW
12:16 57.9 °F 39.9 °F 30.24 in West 1.2 mph 1.2 mph 51% 0.00 in WeatherDisplay:10.37 W/m2 FEW
12:22 58.2 °F 40.1 °F 30.24 in South 1.2 mph 1.2 mph 51% 0.00 in WeatherDisplay:10.37 W/m2 FEW
12:27 58.5 °F 39.4 °F 30.24 in SSW 2.3 mph 2.3 mph 49% 0.00 in WeatherDisplay:10.37 W/m2 FEW
12:32 58.5 °F 39.4 °F 30.24 in East 3.5 mph 3.5 mph 49% 0.00 in WeatherDisplay:10.37 W/m2 FEW
12:37 58.6 °F 40.0 °F 30.24 in SE 1.2 mph 1.2 mph 50% 0.00 in WeatherDisplay:10.37 W/m2 FEW
12:42 58.8 °F 39.7 °F 30.24 in WSW 2.3 mph 2.3 mph 49% 0.00 in WeatherDisplay:10.37 W/m2 FEW
12:47 59.0 °F 38.8 °F 30.24 in SW 1.2 mph 1.2 mph 47% 0.00 in WeatherDisplay:10.37 W/m2 FEW
12:52 59.2 °F 39.0 °F 30.24 in East 1.2 mph 1.2 mph 47% 0.00 in WeatherDisplay:10.37 W/m2 FEW
12:57 59.8 °F 39.5 °F 30.24 in SSW 4.1 mph 4.1 mph 47% 0.00 in WeatherDisplay:10.37 W/m2 FEW
13:02 60.1 °F 39.2 °F 30.21 in North 1.2 mph 1.2 mph 46% 0.00 in WeatherDisplay:10.37 W/m2 FEW
13:07 60.5 °F 39.6 °F 30.21 in WSW 1.2 mph 1.2 mph 46% 0.00 in WeatherDisplay:10.37 W/m2 FEW
13:12 60.9 °F 40.5 °F 30.21 in West 1.2 mph 1.2 mph 47% 0.00 in WeatherDisplay:10.37 W/m2 FEW
13:17 61.3 °F 40.9 °F 30.21 in ENE 1.2 mph 1.2 mph 47% 0.00 in WeatherDisplay:10.37 W/m2 FEW
13:22 61.4 °F 40.4 °F 30.21 in WSW 2.3 mph 2.3 mph 46% 0.00 in WeatherDisplay:10.37 W/m2 FEW
13:27 61.2 °F 39.1 °F 30.21 in WNW 2.3 mph 2.3 mph 44% 0.00 in WeatherDisplay:10.37 W/m2 FEW
13:32 61.2 °F 39.1 °F 30.21 in SW 3.5 mph 3.5 mph 44% 0.00 in WeatherDisplay:10.37 W/m2 FEW
13:37 61.1 °F 40.7 °F 30.21 in West 1.2 mph 1.2 mph 47% 0.00 in WeatherDisplay:10.37 W/m2 FEW
13:42 61.2 °F 40.2 °F 30.21 in WSW 1.2 mph 1.2 mph 46% 0.00 in WeatherDisplay:10.37 W/m2 FEW
13:47 61.0 °F 40.1 °F 30.21 in East 1.2 mph 1.2 mph 46% 0.00 in WeatherDisplay:10.37 W/m2 FEW
13:48 61.0 °F 39.5 °F 30.21 in East 1.2 mph 1.2 mph 45% 0.00 in WeatherDisplay:10.37 W/m2 FEW
13:53 61.0 °F 41.2 °F 30.21 in Calm     48% 0.00 in WeatherDisplay:10.37 W/m2 FEW
13:58 61.2 °F 40.2 °F 30.21 in South 2.0 mph 2.0 mph 46% 0.00 in WeatherDisplay:10.37 W/m2 FEW
14:03 61.0 °F 40.1 °F 30.20 in Calm     46% 0.00 in WeatherDisplay:10.37 W/m2 FEW
14:08 61.1 °F 41.2 °F 30.20 in Calm     48% 0.00 in WeatherDisplay:10.37 W/m2 FEW
14:13 61.3 °F 40.9 °F 30.20 in West 1.2 mph 1.2 mph 47% 0.00 in WeatherDisplay:10.37 W/m2 FEW
14:18 61.5 °F 40.5 °F 30.20 in East 1.2 mph 1.2 mph 46% 0.00 in WeatherDisplay:10.37 W/m2 FEW
14:23 61.6 °F 40.6 °F 30.20 in SSW 2.3 mph   46% 0.00 in WeatherDisplay:10.37 W/m2 FEW
14:28 61.4 °F 42.1 °F 30.20 in WNW 2.3 mph 2.3 mph 49% 0.00 in WeatherDisplay:10.37 W/m2 FEW
14:33 61.3 °F 41.4 °F 30.20 in WSW 2.3 mph 2.3 mph 48% 0.00 in WeatherDisplay:10.37 W/m2 FEW
14:38 61.1 °F 40.7 °F 30.20 in NW 2.3 mph   47% 0.00 in WeatherDisplay:10.37 W/m2 FEW
14:44 61.2 °F 41.3 °F 30.20 in West 1.0 mph 1.0 mph 48% 0.00 in WeatherDisplay:10.37 W/m2 FEW
14:49 61.1 °F 42.8 °F 30.20 in WNW 1.2 mph 1.2 mph 51% 0.00 in WeatherDisplay:10.37 W/m2 FEW
14:54 61.0 °F 40.6 °F 30.20 in WNW 1.2 mph 1.2 mph 47% 0.00 in WeatherDisplay:10.37 W/m2 FEW
14:59 60.8 °F 41.0 °F 30.20 in North 2.3 mph 2.3 mph 48% 0.00 in WeatherDisplay:10.37 W/m2 FEW
15:04 60.6 °F 40.8 °F 30.19 in Calm     48% 0.00 in WeatherDisplay:10.37 W/m2 SCT
15:09 60.4 °F 40.6 °F 30.19 in Calm     48% 0.00 in WeatherDisplay:10.37 W/m2 SCT
15:14 60.4 °F 41.1 °F 30.19 in South 1.2 mph   49% 0.00 in WeatherDisplay:10.37 W/m2 SCT
15:19 60.3 °F 41.0 °F 30.19 in ESE 3.1 mph 3.1 mph 49% 0.00 in WeatherDisplay:10.37 W/m2 SCT
15:24 60.1 °F 39.8 °F 30.19 in SE 2.3 mph 2.3 mph 47% 0.00 in WeatherDisplay:10.37 W/m2 SCT
15:29 59.9 °F 40.1 °F 30.19 in NW 1.2 mph 1.2 mph 48% 0.00 in WeatherDisplay:10.37 W/m2 SCT
15:34 59.8 °F 41.1 °F 30.19 in South 2.3 mph 2.3 mph 50% 0.00 in WeatherDisplay:10.37 W/m2 SCT
15:39 59.7 °F 41.0 °F 30.19 in ESE 1.2 mph 1.2 mph 50% 0.00 in WeatherDisplay:10.37 W/m2 SCT
15:44 59.7 °F 41.5 °F 30.19 in NNE 1.2 mph 1.2 mph 51% 0.00 in WeatherDisplay:10.37 W/m2 SCT
15:49 59.7 °F 41.5 °F 30.19 in South 1.2 mph 1.2 mph 51% 0.00 in WeatherDisplay:10.37 W/m2 SCT
15:54 59.6 °F 40.9 °F 30.19 in SW 1.2 mph 1.2 mph 50% 0.00 in WeatherDisplay:10.37 W/m2 SCT
15:59 59.5 °F 40.8 °F 30.19 in ESE 1.0 mph   50% 0.00 in WeatherDisplay:10.37 W/m2 SCT
16:04 59.2 °F 43.0 °F 30.20 in Calm     55% 0.00 in WeatherDisplay:10.37 W/m2 BKN
16:09 58.8 °F 41.2 °F 30.20 in Calm   0.3 mph 52% 0.00 in WeatherDisplay:10.37 W/m2 BKN
16:11 58.7 °F 41.6 °F 30.20 in West 1.0 mph 1.0 mph 53% 0.00 in WeatherDisplay:10.37 W/m2 BKN
16:17 58.4 °F 42.8 °F 30.20 in Calm     56% 0.00 in WeatherDisplay:10.37 W/m2 BKN
16:22 58.0 °F 41.4 °F 30.20 in West 1.2 mph 1.2 mph 54% 0.00 in WeatherDisplay:10.37 W/m2 BKN
16:24 58.0 °F 41.9 °F 30.20 in Calm     55% 0.00 in WeatherDisplay:10.37 W/m2 BKN
16:29 57.8 °F 41.3 °F 30.20 in West 1.2 mph 1.2 mph 54% 0.00 in WeatherDisplay:10.37 W/m2 BKN
16:34 57.6 °F 41.1 °F 30.20 in Calm     54% 0.00 in WeatherDisplay:10.37 W/m2 BKN
16:39 57.3 °F 40.8 °F 30.20 in Calm     54% 0.00 in WeatherDisplay:10.37 W/m2 BKN
16:44 57.0 °F 40.5 °F 30.20 in NW 1.2 mph 1.2 mph 54% 0.00 in WeatherDisplay:10.37 W/m2 BKN
16:49 56.7 °F 41.2 °F 30.20 in NNW 1.2 mph 1.2 mph 56% 0.00 in WeatherDisplay:10.37 W/m2 BKN
16:54 56.3 °F 41.3 °F 30.20 in Calm     57% 0.00 in WeatherDisplay:10.37 W/m2 BKN
16:59 56.1 °F 41.5 °F 30.20 in Calm     58% 0.00 in WeatherDisplay:10.37 W/m2 BKN
17:04 55.7 °F 41.6 °F 30.21 in Calm     59% 0.00 in WeatherDisplay:10.37 W/m2 BKN
17:09 55.3 °F 41.6 °F 30.21 in Calm     60% 0.00 in WeatherDisplay:10.37 W/m2 BKN
17:14 55.0 °F 41.8 °F 30.21 in Calm     61% 0.00 in WeatherDisplay:10.37 W/m2 BKN
17:19 54.8 °F 42.0 °F 30.21 in Calm     62% 0.00 in WeatherDisplay:10.37 W/m2 BKN
17:24 54.4 °F 41.6 °F 30.21 in Calm     62% 0.00 in WeatherDisplay:10.37 W/m2 BKN
17:29 54.0 °F 41.3 °F 30.21 in Calm     62% 0.00 in WeatherDisplay:10.37 W/m2 BKN
17:31 53.9 °F 40.8 °F 30.21 in Calm     61% 0.00 in WeatherDisplay:10.37 W/m2 BKN
17:36 53.5 °F 41.2 °F 30.21 in Calm     63% 0.00 in WeatherDisplay:10.37 W/m2 BKN
17:41 53.1 °F 40.8 °F 30.21 in Calm     63% 0.00 in WeatherDisplay:10.37 W/m2 BKN
17:46 52.7 °F 41.3 °F 30.21 in Calm     65% 0.00 in WeatherDisplay:10.37 W/m2 BKN
17:51 52.3 °F 40.9 °F 30.21 in Calm     65% 0.00 in WeatherDisplay:10.37 W/m2 BKN
17:56 51.9 °F 40.9 °F 30.21 in Calm     66% 0.00 in WeatherDisplay:10.37 W/m2 BKN
18:01 51.5 °F 41.7 °F 30.21 in Calm     69% 0.00 in WeatherDisplay:10.37 W/m2 BKN
18:06 51.2 °F 42.1 °F 30.21 in Calm     71% 0.00 in WeatherDisplay:10.37 W/m2 BKN
18:11 50.8 °F 41.0 °F 30.21 in Calm     69% 0.00 in WeatherDisplay:10.37 W/m2 BKN
18:16 50.4 °F 41.3 °F 30.21 in Calm     71% 0.00 in WeatherDisplay:10.37 W/m2 BKN
18:21 50.1 °F 41.4 °F 30.21 in Calm     72% 0.00 in WeatherDisplay:10.37 W/m2 BKN
18:26 49.8 °F 41.5 °F 30.21 in Calm     73% 0.00 in WeatherDisplay:10.37 W/m2 BKN
18:31 49.6 °F 40.9 °F 30.21 in Calm     72% 0.00 in WeatherDisplay:10.37 W/m2 BKN
18:36 49.6 °F 40.6 °F 30.21 in Calm     71% 0.00 in WeatherDisplay:10.37 W/m2 BKN
18:41 49.5 °F 40.5 °F 30.21 in Calm     71% 0.00 in WeatherDisplay:10.37 W/m2 BKN
18:46 49.4 °F 40.4 °F 30.21 in Calm     71% 0.00 in WeatherDisplay:10.37 W/m2 BKN
18:51 49.2 °F 40.2 °F 30.21 in Calm     71% 0.00 in WeatherDisplay:10.37 W/m2 BKN
18:57 48.9 °F 39.9 °F 30.21 in Calm     71% 0.00 in WeatherDisplay:10.37 W/m2 BKN
19:02 48.7 °F 40.1 °F 30.23 in Calm     72% 0.00 in WeatherDisplay:10.37 W/m2 FEW
19:07 48.4 °F 40.1 °F 30.23 in Calm     73% 0.00 in WeatherDisplay:10.37 W/m2 FEW
19:12 48.2 °F 39.9 °F 30.23 in Calm     73% 0.00 in WeatherDisplay:10.37 W/m2 FEW
19:17 48.0 °F 39.8 °F 30.23 in Calm     73% 0.00 in WeatherDisplay:10.37 W/m2 FEW
19:22 47.8 °F 39.6 °F 30.23 in Calm     73% 0.00 in WeatherDisplay:10.37 W/m2 FEW
19:27 47.6 °F 39.7 °F 30.23 in Calm     74% 0.00 in WeatherDisplay:10.37 W/m2 FEW
19:32 47.4 °F 39.9 °F 30.23 in Calm     75% 0.00 in WeatherDisplay:10.37 W/m2 FEW
19:37 47.2 °F 39.7 °F 30.23 in Calm     75% 0.00 in WeatherDisplay:10.37 W/m2 FEW
19:42 47.0 °F 39.5 °F 30.23 in Calm     75% 0.00 in WeatherDisplay:10.37 W/m2 FEW
19:47 46.9 °F 39.4 °F 30.23 in Calm     75% 0.00 in WeatherDisplay:10.37 W/m2 FEW
19:52 46.7 °F 38.9 °F 30.23 in Calm     74% 0.00 in WeatherDisplay:10.37 W/m2 FEW
19:57 46.6 °F 39.1 °F 30.23 in Calm     75% 0.00 in WeatherDisplay:10.37 W/m2 FEW
20:02 46.5 °F 39.0 °F 30.24 in Calm     75% 0.00 in WeatherDisplay:10.37 W/m2 CLR
20:07 46.5 °F 38.3 °F 30.24 in Calm     73% 0.00 in WeatherDisplay:10.37 W/m2 CLR
20:12 46.7 °F 38.9 °F 30.24 in Calm     74% 0.00 in WeatherDisplay:10.37 W/m2 CLR
20:17 46.7 °F 38.9 °F 30.24 in Calm     74% 0.00 in WeatherDisplay:10.37 W/m2 CLR
20:22 46.6 °F 38.1 °F 30.24 in West 1.2 mph   72% 0.00 in WeatherDisplay:10.37 W/m2 CLR
20:27 46.7 °F 38.5 °F 30.24 in Calm     73% 0.00 in WeatherDisplay:10.37 W/m2 CLR
20:32 46.7 °F 38.5 °F 30.24 in Calm     73% 0.00 in WeatherDisplay:10.37 W/m2 CLR
20:37 46.6 °F 38.8 °F 30.24 in Calm     74% 0.00 in WeatherDisplay:10.37 W/m2 CLR
20:42 46.5 °F 38.3 °F 30.24 in Calm     73% 0.00 in WeatherDisplay:10.37 W/m2 CLR
20:47 46.4 °F 38.9 °F 30.24 in Calm     75% 0.00 in WeatherDisplay:10.37 W/m2 CLR
20:48 46.3 °F 38.8 °F 30.24 in Calm     75% 0.00 in WeatherDisplay:10.37 W/m2 CLR
20:53 46.0 °F 39.2 °F 30.24 in Calm     77% 0.00 in WeatherDisplay:10.37 W/m2 CLR
20:58 45.7 °F 38.9 °F 30.24 in Calm     77% 0.00 in WeatherDisplay:10.37 W/m2 CLR
21:03 45.4 °F 38.9 °F 30.25 in Calm     78% 0.00 in WeatherDisplay:10.37 W/m2 CLR
21:08 45.1 °F 38.6 °F 30.25 in Calm     78% 0.00 in WeatherDisplay:10.37 W/m2 CLR
21:10 45.0 °F 38.9 °F 30.25 in Calm     79% 0.00 in WeatherDisplay:10.37 W/m2 CLR
21:15 44.8 °F 38.7 °F 30.25 in Calm     79% 0.00 in WeatherDisplay:10.37 W/m2 CLR
21:20 44.5 °F 38.7 °F 30.25 in Calm     80% 0.00 in WeatherDisplay:10.37 W/m2 CLR
21:25 44.2 °F 38.7 °F 30.25 in Calm     81% 0.00 in WeatherDisplay:10.37 W/m2 CLR
21:30 44.0 °F 38.5 °F 30.25 in Calm     81% 0.00 in WeatherDisplay:10.37 W/m2 CLR
21:35 43.7 °F 38.3 °F 30.25 in Calm     81% 0.00 in WeatherDisplay:10.37 W/m2 CLR
21:40 43.5 °F 38.1 °F 30.25 in Calm     81% 0.00 in WeatherDisplay:10.37 W/m2 CLR
21:45 43.4 °F 38.0 °F 30.25 in Calm     81% 0.00 in WeatherDisplay:10.37 W/m2 CLR
21:50 43.3 °F 38.2 °F 30.25 in Calm     82% 0.00 in WeatherDisplay:10.37 W/m2 CLR
21:55 43.2 °F 38.1 °F 30.25 in Calm     82% 0.00 in WeatherDisplay:10.37 W/m2 CLR
22:00 43.1 °F 38.0 °F 30.25 in Calm     82% 0.00 in WeatherDisplay:10.37 W/m2 CLR
22:05 43.0 °F 37.9 °F 30.27 in Calm     82% 0.00 in WeatherDisplay:10.37 W/m2 CLR
22:11 42.9 °F 38.1 °F 30.27 in Calm     83% 0.00 in WeatherDisplay:10.37 W/m2 CLR
22:16 42.7 °F 37.9 °F 30.27 in Calm     83% 0.00 in WeatherDisplay:10.37 W/m2 CLR
22:22 42.5 °F 37.7 °F 30.27 in Calm     83% 0.00 in WeatherDisplay:10.37 W/m2 CLR
22:23 42.5 °F 38.0 °F 30.27 in Calm     84% 0.00 in WeatherDisplay:10.37 W/m2 CLR
22:24 42.4 °F 37.9 °F 30.27 in Calm     84% 0.00 in WeatherDisplay:10.37 W/m2 CLR
22:28 42.3 °F 37.8 °F 30.27 in Calm     84% 0.00 in WeatherDisplay:10.37 W/m2 CLR
22:29 42.4 °F 37.9 °F 30.27 in Calm     84% 0.00 in WeatherDisplay:10.37 W/m2 CLR
22:33 42.3 °F 37.8 °F 30.27 in Calm     84% 0.00 in WeatherDisplay:10.37 W/m2 CLR
22:38 42.1 °F 37.9 °F 30.27 in Calm     85% 0.00 in WeatherDisplay:10.37 W/m2 CLR
22:43 41.9 °F 37.7 °F 30.27 in Calm     85% 0.00 in WeatherDisplay:10.37 W/m2 CLR
22:48 41.9 °F 37.7 °F 30.27 in Calm     85% 0.00 in WeatherDisplay:10.37 W/m2 CLR
22:53 41.7 °F 37.8 °F 30.27 in Calm     86% 0.00 in WeatherDisplay:10.37 W/m2 CLR
22:59 41.6 °F 37.7 °F 30.27 in Calm     86% 0.00 in WeatherDisplay:10.37 W/m2 CLR
23:04 41.5 °F 37.6 °F 30.27 in Calm     86% 0.00 in WeatherDisplay:10.37 W/m2 CLR
23:09 41.3 °F 37.7 °F 30.27 in Calm     87% 0.00 in WeatherDisplay:10.37 W/m2 CLR
23:14 41.2 °F 37.6 °F 30.27 in Calm     87% 0.00 in WeatherDisplay:10.37 W/m2 CLR
23:19 41.2 °F 37.6 °F 30.27 in Calm     87% 0.00 in WeatherDisplay:10.37 W/m2 CLR
23:24 41.1 °F 37.5 °F 30.27 in Calm     87% 0.00 in WeatherDisplay:10.37 W/m2 CLR
23:29 40.9 °F 37.3 °F 30.27 in Calm     87% 0.00 in WeatherDisplay:10.37 W/m2 CLR
23:34 40.9 °F 37.6 °F 30.27 in Calm     88% 0.00 in WeatherDisplay:10.37 W/m2 CLR
23:39 40.8 °F 37.5 °F 30.27 in Calm     88% 0.00 in WeatherDisplay:10.37 W/m2 CLR
23:40 40.8 °F 37.5 °F 30.27 in Calm     88% 0.00 in WeatherDisplay:10.37 W/m2 CLR
23:45 40.7 °F 37.4 °F 30.27 in Calm     88% 0.00 in WeatherDisplay:10.37 W/m2 CLR
23:50 40.6 °F 37.3 °F 30.27 in Calm     88% 0.00 in WeatherDisplay:10.37 W/m2 CLR
23:55 40.6 °F 37.6 °F 30.27 in Calm     89% 0.00 in WeatherDisplay:10.37 W/m2 CLR
Piedmont Bend
Compliments of Weather Underground - 4 mb